Yeowardville, Illinois
Current Conditions -  °F | °C
As of 5:55 PM on Monday 22 Dec 2014 (Local Time) from KSQI Reporting Station
Overcast Overcast  
Wind Chill: 30°   Ceiling: 400
Heat Index: 37°   Visibility: 4mi
Dew Point: 36°   Wind: 12mph
Humidity: 93%   Direction: 110°ESE
Pressure: 29.59"   Gusts: NA
Location:  41.7267°N, 89.7066°W
Report Text: KSQI 222355Z 11010KT 4SM OVC004 03/02 A2959 RMK AO1 60005 10030 20020 57010
Loading
Personal Weather Stations






























Interactive Weather Map New forecast layout! Learn more

10-Day Weather Forecast

Advertisements
Track Severe Weather on mobile